createdAt,value
2022-10-03T00:02:06.882Z,3.10
2022-10-03T00:04:43.702Z,3.40
2022-10-03T00:07:17.240Z,2.90
2022-10-03T00:09:56.443Z,3.33
2022-10-03T00:12:47.278Z,3.13
2022-10-03T00:15:13.512Z,2.70
2022-10-03T00:18:02.219Z,3.60
2022-10-03T00:20:28.439Z,3.17
2022-10-03T00:23:07.410Z,3.13
2022-10-03T00:25:52.448Z,3.87
2022-10-03T00:28:24.248Z,3.13
2022-10-03T00:31:03.513Z,2.90
2022-10-03T00:33:32.877Z,2.70
2022-10-03T00:35:59.081Z,2.37
2022-10-03T00:38:40.572Z,3.23
2022-10-03T00:41:15.400Z,3.87
2022-10-03T00:44:00.483Z,3.07
2022-10-03T00:46:53.612Z,3.40
2022-10-03T00:49:38.405Z,2.80
2022-10-03T00:52:23.512Z,3.70
2022-10-03T00:55:04.368Z,2.90
2022-10-03T00:57:39.982Z,2.63
2022-10-03T01:00:15.553Z,3.03
2022-10-03T01:03:00.748Z,3.17
2022-10-03T01:05:31.728Z,2.97
2022-10-03T01:08:01.283Z,2.90
2022-10-03T01:10:59.743Z,3.63
2022-10-03T01:13:49.852Z,2.97
2022-10-03T01:16:37.834Z,2.70
2022-10-03T01:19:28.290Z,3.10
2022-10-03T01:22:14.945Z,3.30
2022-10-03T01:24:59.176Z,3.47
2022-10-03T01:27:30.595Z,2.97
2022-10-03T01:30:23.515Z,3.40
2022-10-03T01:32:57.549Z,2.73
2022-10-03T01:35:31.586Z,2.70
2022-10-03T01:38:24.192Z,2.63
2022-10-03T01:40:50.501Z,3.00
2022-10-03T01:43:32.899Z,3.70
2022-10-03T01:46:08.384Z,2.43
2022-10-03T01:48:37.407Z,2.43
2022-10-03T01:51:08.706Z,2.97
2022-10-03T01:53:47.826Z,2.40
2022-10-03T01:56:20.708Z,3.23
2022-10-03T01:58:58.154Z,2.60
2022-10-03T02:01:24.441Z,3.03
2022-10-03T02:03:50.693Z,2.40
2022-10-03T02:06:24.367Z,2.90
2022-10-03T02:08:56.610Z,3.07
2022-10-03T02:11:37.891Z,3.40
2022-10-03T02:14:13.604Z,2.60
2022-10-03T02:16:44.725Z,2.90
2022-10-03T02:19:21.308Z,3.47
2022-10-03T02:21:52.867Z,2.60
2022-10-03T02:24:34.143Z,2.77
2022-10-03T02:27:20.905Z,2.80
2022-10-03T02:29:56.883Z,2.93
2022-10-03T02:32:41.965Z,2.33
2022-10-03T02:35:10.104Z,2.80
2022-10-03T02:37:54.970Z,2.50
2022-10-03T02:40:39.975Z,3.17
2022-10-03T02:43:18.640Z,2.60
2022-10-03T02:46:06.450Z,3.07
2022-10-03T02:48:42.992Z,3.17
2022-10-03T02:51:27.727Z,2.43
2022-10-03T02:54:08.274Z,2.90
2022-10-03T02:56:47.686Z,2.93
2022-10-03T02:59:32.028Z,2.93
2022-10-03T03:02:10.257Z,2.47
2022-10-03T03:05:12.897Z,2.43
2022-10-03T03:07:56.303Z,2.90
2022-10-03T03:10:37.165Z,2.43
2022-10-03T03:13:26.179Z,2.20
2022-10-03T03:16:10.827Z,2.33
2022-10-03T03:18:39.387Z,2.87
2022-10-03T03:21:10.607Z,2.37
2022-10-03T03:23:49.275Z,2.90
2022-10-03T03:26:18.574Z,2.87
2022-10-03T03:28:50.589Z,2.77
2022-10-03T03:31:43.713Z,3.13
2022-10-03T03:34:43.043Z,2.50
2022-10-03T03:37:11.630Z,2.93
2022-10-03T03:39:56.797Z,2.87
2022-10-03T03:42:42.150Z,2.73
2022-10-03T03:45:19.803Z,2.70
2022-10-03T03:47:54.984Z,3.07
2022-10-03T03:50:40.141Z,2.97
2022-10-03T03:53:16.059Z,2.80
2022-10-03T03:56:09.435Z,2.83
2022-10-03T03:58:41.833Z,3.27
2022-10-03T04:01:17.055Z,2.63
2022-10-03T04:03:58.284Z,2.73
2022-10-03T04:06:36.451Z,3.30
2022-10-03T04:09:08.040Z,2.80
2022-10-03T04:11:52.969Z,2.73
2022-10-03T04:14:34.827Z,3.87
2022-10-03T04:17:30.774Z,2.77
2022-10-03T04:20:12.828Z,2.60
2022-10-03T04:22:51.061Z,2.87
2022-10-03T04:25:31.893Z,2.63
2022-10-03T04:28:14.953Z,2.83
2022-10-03T04:30:55.385Z,2.50
2022-10-03T04:33:21.782Z,2.63
2022-10-03T04:36:14.453Z,3.10
2022-10-03T04:38:44.386Z,2.20
2022-10-03T04:41:16.767Z,2.60
2022-10-03T04:43:54.778Z,2.80
2022-10-03T04:46:27.826Z,2.27
2022-10-03T04:48:58.100Z,2.93
2022-10-03T04:51:32.836Z,2.60
2022-10-03T04:54:09.744Z,2.47
2022-10-03T04:56:50.851Z,3.03
2022-10-03T04:59:26.675Z,2.93
2022-10-03T05:01:55.677Z,2.57
2022-10-03T05:04:29.869Z,2.63
2022-10-03T05:06:59.167Z,2.90
2022-10-03T05:09:32.713Z,2.77
2022-10-03T05:12:22.259Z,2.93
2022-10-03T05:15:07.453Z,3.40
2022-10-03T05:17:42.106Z,2.63
2022-10-03T05:20:20.113Z,2.53
2022-10-03T05:22:51.967Z,2.90
2022-10-03T05:25:39.019Z,3.40
2022-10-03T05:28:12.037Z,3.17
2022-10-03T05:30:43.331Z,3.00
2022-10-03T05:33:22.898Z,2.67
2022-10-03T05:36:08.037Z,2.70
2022-10-03T05:38:34.279Z,2.60
2022-10-03T05:41:08.055Z,2.57
2022-10-03T05:43:36.188Z,2.73
2022-10-03T05:46:10.425Z,2.47
2022-10-03T05:48:48.592Z,3.00
2022-10-03T05:51:33.864Z,2.80
2022-10-03T05:54:10.457Z,3.63
2022-10-03T05:56:41.174Z,2.73
2022-10-03T05:59:07.489Z,2.83
2022-10-03T06:02:00.414Z,2.60
2022-10-03T06:04:42.979Z,2.97
2022-10-03T06:07:22.743Z,2.70
2022-10-03T06:10:07.552Z,2.50
2022-10-03T06:12:40.359Z,2.60
2022-10-03T06:15:14.399Z,2.63
2022-10-03T06:17:43.188Z,2.63
2022-10-03T06:20:38.542Z,2.20
2022-10-03T06:23:23.318Z,2.30
2022-10-03T06:26:01.829Z,2.43
2022-10-03T06:28:28.310Z,2.70
2022-10-03T06:31:13.183Z,2.77
2022-10-03T06:33:58.650Z,2.57
2022-10-03T06:36:30.808Z,2.60
2022-10-03T06:39:15.551Z,2.20
2022-10-03T06:41:42.969Z,2.50
2022-10-03T06:44:09.322Z,3.03
2022-10-03T06:46:38.508Z,2.70
2022-10-03T06:49:10.618Z,2.23
2022-10-03T06:52:00.808Z,2.60
2022-10-03T06:54:46.224Z,2.53
2022-10-03T06:57:30.960Z,3.20
2022-10-03T07:00:01.641Z,2.93
2022-10-03T07:03:00.404Z,3.10
2022-10-03T07:05:49.780Z,3.10
2022-10-03T07:08:36.267Z,2.80
2022-10-03T07:11:14.418Z,2.77
2022-10-03T07:13:56.515Z,2.77
2022-10-03T07:16:43.738Z,2.83
2022-10-03T07:19:28.807Z,3.13
2022-10-03T07:22:27.636Z,2.47
2022-10-03T07:25:09.228Z,2.60
2022-10-03T07:27:50.897Z,2.20
2022-10-03T07:30:19.124Z,2.17
2022-10-03T07:33:04.866Z,2.50
2022-10-03T07:36:08.699Z,2.57
2022-10-03T07:39:10.348Z,2.87
2022-10-03T07:41:47.764Z,2.53
2022-10-03T07:44:32.676Z,2.67
2022-10-03T07:47:11.924Z,2.77
2022-10-03T07:49:44.095Z,3.07
2022-10-03T07:52:20.099Z,2.50
2022-10-03T07:55:00.148Z,2.50
2022-10-03T07:57:37.917Z,3.07
2022-10-03T08:00:14.583Z,2.50
2022-10-03T08:02:59.579Z,2.53
2022-10-03T08:05:34.997Z,2.27
2022-10-03T08:08:19.970Z,2.27
2022-10-03T08:10:46.208Z,2.37
2022-10-03T08:13:23.868Z,2.20
2022-10-03T08:15:56.319Z,2.67
2022-10-03T08:18:47.815Z,2.30
2022-10-03T08:21:20.512Z,2.47
2022-10-03T08:24:11.989Z,2.33
2022-10-03T08:26:47.437Z,2.93
2022-10-03T08:29:13.655Z,2.37
2022-10-03T08:31:59.520Z,2.43
2022-10-03T08:34:32.759Z,2.70
2022-10-03T08:36:59.696Z,2.67
2022-10-03T08:39:45.761Z,2.70
2022-10-03T08:42:23.548Z,2.87
2022-10-03T08:44:55.628Z,2.67
2022-10-03T08:47:28.167Z,2.43
2022-10-03T08:50:13.053Z,2.57
2022-10-03T08:52:45.341Z,2.33
2022-10-03T08:55:26.773Z,2.50
2022-10-03T08:58:16.343Z,2.87
2022-10-03T09:00:54.849Z,2.53
2022-10-03T09:03:43.151Z,3.00
2022-10-03T09:06:13.332Z,2.70
2022-10-03T09:08:45.105Z,2.20
2022-10-03T09:11:30.298Z,2.67
2022-10-03T09:13:57.724Z,2.57
2022-10-03T09:16:35.613Z,2.07
2022-10-03T09:19:15.927Z,2.50
2022-10-03T09:22:01.050Z,2.53
2022-10-03T09:24:45.855Z,2.20
2022-10-03T09:27:25.129Z,2.50
2022-10-03T09:29:54.447Z,2.77
2022-10-03T09:32:26.534Z,3.10
2022-10-03T09:35:07.032Z,2.20
2022-10-03T09:37:38.937Z,2.50
2022-10-03T09:40:23.754Z,2.43
2022-10-03T09:43:06.812Z,2.73
2022-10-03T09:45:42.202Z,2.27
2022-10-03T09:48:30.053Z,2.40
2022-10-03T09:51:18.711Z,2.67
2022-10-03T09:53:59.779Z,2.43
2022-10-03T09:56:27.004Z,2.50
2022-10-03T09:59:06.813Z,2.43
2022-10-03T10:01:36.356Z,2.30
2022-10-03T10:04:32.662Z,2.60
2022-10-03T10:07:22.755Z,2.03
2022-10-03T10:09:55.359Z,2.17
2022-10-03T10:12:40.999Z,2.37
2022-10-03T10:15:42.635Z,2.70
2022-10-03T10:18:24.025Z,2.60
2022-10-03T10:21:02.861Z,2.30
2022-10-03T10:23:38.131Z,2.10
2022-10-03T10:26:26.333Z,2.60
2022-10-03T10:28:55.560Z,1.90
2022-10-03T10:31:40.121Z,1.90
2022-10-03T10:34:42.373Z,1.87
2022-10-03T10:37:19.113Z,2.73
2022-10-03T10:40:04.051Z,2.67
2022-10-03T10:42:30.256Z,1.90
2022-10-03T10:45:14.354Z,1.90
2022-10-03T10:47:55.724Z,2.43
2022-10-03T10:50:25.043Z,1.80
2022-10-03T10:53:09.735Z,2.67
2022-10-03T10:56:01.308Z,1.93
2022-10-03T10:58:46.354Z,2.07
2022-10-03T11:01:31.391Z,2.20
2022-10-03T11:03:57.590Z,1.90
2022-10-03T11:06:38.678Z,2.13
2022-10-03T11:09:12.532Z,2.10
2022-10-03T11:12:09.981Z,2.00
2022-10-03T11:14:42.028Z,1.90
2022-10-03T11:17:25.132Z,1.83
2022-10-03T11:20:20.114Z,1.80
2022-10-03T11:22:46.355Z,1.93
2022-10-03T11:25:32.331Z,1.80
2022-10-03T11:28:07.991Z,1.60
2022-10-03T11:30:37.278Z,1.63
2022-10-03T11:33:04.288Z,1.70
2022-10-03T11:35:42.957Z,1.60
2022-10-03T11:38:14.757Z,1.50
2022-10-03T11:40:55.273Z,1.80
2022-10-03T11:43:34.870Z,1.70
2022-10-03T11:46:21.124Z,1.40
2022-10-03T11:48:47.370Z,1.80
2022-10-03T11:51:18.738Z,2.07
2022-10-03T11:54:07.377Z,2.00
2022-10-03T11:56:49.654Z,2.10
2022-10-03T11:59:27.432Z,2.13
2022-10-03T12:02:12.595Z,2.30
2022-10-03T12:04:51.035Z,2.07
2022-10-03T12:07:58.285Z,2.10
2022-10-03T12:10:39.134Z,2.40
2022-10-03T12:13:14.983Z,2.30
2022-10-03T12:15:43.290Z,2.43
2022-10-03T12:18:12.530Z,2.60
2022-10-03T12:21:02.821Z,2.40
2022-10-03T12:23:29.043Z,2.50
2022-10-03T12:25:56.188Z,2.50
2022-10-03T12:28:25.452Z,2.17
2022-10-03T12:30:56.710Z,1.97
2022-10-03T12:33:32.795Z,1.90
2022-10-03T12:36:16.716Z,1.87
2022-10-03T12:39:01.130Z,1.70
2022-10-03T12:41:41.819Z,1.57
2022-10-03T12:44:30.611Z,1.43
2022-10-03T12:47:11.719Z,1.87
2022-10-03T12:49:54.564Z,2.07
2022-10-03T12:52:44.127Z,1.90
2022-10-03T12:55:23.284Z,2.17
2022-10-03T12:57:49.544Z,1.67
2022-10-03T13:00:43.922Z,1.77
2022-10-03T13:03:12.188Z,1.90
2022-10-03T13:05:55.114Z,1.27
2022-10-03T13:08:37.363Z,1.40
2022-10-03T13:11:12.174Z,1.67
2022-10-03T13:13:57.371Z,1.83
2022-10-03T13:16:27.016Z,1.40
2022-10-03T13:18:56.245Z,1.47
2022-10-03T13:21:45.886Z,1.20
2022-10-03T13:24:26.522Z,1.10
2022-10-03T13:27:14.331Z,1.20
2022-10-03T13:29:42.489Z,1.23
2022-10-03T13:32:27.092Z,1.50
2022-10-03T13:35:26.299Z,1.37
2022-10-03T13:38:05.169Z,1.17
2022-10-03T13:40:33.720Z,1.13
2022-10-03T13:43:02.410Z,1.53
2022-10-03T13:45:29.603Z,1.53
2022-10-03T13:47:58.677Z,1.93
2022-10-03T13:50:40.143Z,1.60
2022-10-03T13:53:12.053Z,1.77
2022-10-03T13:55:48.540Z,1.43
2022-10-03T13:58:35.506Z,1.80
2022-10-03T14:01:11.544Z,2.30
2022-10-03T14:03:45.484Z,1.77
2022-10-03T14:06:31.854Z,1.80
2022-10-03T14:09:16.848Z,1.83
2022-10-03T14:11:52.600Z,1.70
2022-10-03T14:14:33.560Z,1.90
2022-10-03T14:17:09.211Z,2.13
2022-10-03T14:19:41.905Z,1.87
2022-10-03T14:22:11.210Z,1.50
2022-10-03T14:24:38.380Z,2.23
2022-10-03T14:27:10.195Z,2.80
2022-10-03T14:29:48.207Z,2.10
2022-10-03T14:32:47.409Z,1.97
2022-10-03T14:35:17.527Z,2.00
2022-10-03T14:37:48.964Z,2.00
2022-10-03T14:40:20.076Z,2.20
2022-10-03T14:42:51.360Z,2.30
2022-10-03T14:45:18.821Z,2.13
2022-10-03T14:47:49.279Z,1.80
2022-10-03T14:50:22.275Z,2.37
2022-10-03T14:53:02.414Z,2.17
2022-10-03T14:55:39.729Z,1.97
2022-10-03T14:58:12.185Z,2.17
2022-10-03T15:00:43.665Z,2.70
2022-10-03T15:03:30.963Z,2.00
2022-10-03T15:05:57.212Z,2.00
2022-10-03T15:08:30.853Z,2.37
2022-10-03T15:10:57.359Z,2.47
2022-10-03T15:13:24.160Z,2.67
2022-10-03T15:15:51.244Z,2.07
2022-10-03T15:18:20.861Z,2.13
2022-10-03T15:20:47.718Z,2.00
2022-10-03T15:23:21.873Z,1.90
2022-10-03T15:25:52.971Z,1.80
2022-10-03T15:28:29.336Z,2.20
2022-10-03T15:30:57.905Z,2.30
2022-10-03T15:33:34.956Z,2.00
2022-10-03T15:36:08.890Z,2.20
2022-10-03T15:38:38.396Z,1.97
2022-10-03T15:41:09.503Z,2.17
2022-10-03T15:43:38.816Z,2.60
2022-10-03T15:46:19.491Z,1.70
2022-10-03T15:48:50.676Z,2.20
2022-10-03T15:51:19.609Z,2.20
2022-10-03T15:53:48.366Z,2.30
2022-10-03T15:56:18.902Z,1.90
2022-10-03T15:58:50.206Z,1.93
2022-10-03T16:01:19.157Z,2.03
2022-10-03T16:03:49.632Z,2.10
2022-10-03T16:06:23.974Z,2.13
2022-10-03T16:08:50.189Z,2.67
2022-10-03T16:11:25.074Z,2.20
2022-10-03T16:13:57.136Z,2.03
2022-10-03T16:16:45.486Z,2.20
2022-10-03T16:19:27.004Z,1.80
2022-10-03T16:22:02.071Z,1.90
2022-10-03T16:24:31.480Z,1.97
2022-10-03T16:27:08.692Z,2.20
2022-10-03T16:29:37.267Z,2.10
2022-10-03T16:32:06.103Z,2.17
2022-10-03T16:34:34.378Z,2.60
2022-10-03T16:37:00.827Z,1.93
2022-10-03T16:39:29.969Z,1.83
2022-10-03T16:41:56.316Z,1.93
2022-10-03T16:44:39.811Z,1.90
2022-10-03T16:47:07.955Z,1.90
2022-10-03T16:50:02.214Z,2.13
2022-10-03T16:52:53.110Z,2.00
2022-10-03T16:55:26.562Z,1.70
2022-10-03T16:57:57.252Z,1.67
2022-10-03T17:00:26.444Z,1.67
2022-10-03T17:02:54.455Z,1.70
2022-10-03T17:05:21.073Z,1.73
2022-10-03T17:08:36.725Z,2.10
2022-10-03T17:10:58.120Z,1.70
2022-10-03T17:13:43.488Z,1.70
2022-10-03T17:16:16.546Z,1.50
2022-10-03T17:18:49.229Z,1.50
2022-10-03T17:21:21.293Z,1.67
2022-10-03T17:23:56.877Z,1.87
2022-10-03T17:26:33.119Z,1.60
2022-10-03T17:29:20.566Z,1.43
2022-10-03T17:31:49.436Z,1.77
2022-10-03T17:34:18.185Z,1.90
2022-10-03T17:36:52.203Z,1.70
2022-10-03T17:39:26.388Z,1.70
2022-10-03T17:42:11.185Z,1.40
2022-10-03T17:44:47.315Z,1.60
2022-10-03T17:47:22.357Z,1.37
2022-10-03T17:49:57.212Z,1.97
2022-10-03T17:52:23.851Z,1.60
2022-10-03T17:54:59.141Z,1.80
2022-10-03T17:57:31.052Z,1.50
2022-10-03T18:00:04.164Z,1.50
2022-10-03T18:02:53.204Z,1.47
2022-10-03T18:05:21.111Z,1.70
2022-10-03T18:07:49.071Z,1.53
2022-10-03T18:10:34.235Z,1.50
2022-10-03T18:13:02.064Z,1.43
2022-10-03T18:15:40.882Z,1.80
2022-10-03T18:18:34.217Z,1.60
2022-10-03T18:21:05.310Z,2.10
2022-10-03T18:23:55.875Z,1.30
2022-10-03T18:26:22.500Z,1.23
2022-10-03T18:29:07.207Z,1.83
2022-10-03T18:31:35.205Z,1.63
2022-10-03T18:34:08.223Z,1.83
2022-10-03T18:36:43.021Z,2.03
2022-10-03T18:39:14.450Z,2.13
2022-10-03T18:41:48.764Z,2.07
2022-10-03T18:44:19.424Z,1.87
2022-10-03T18:46:52.775Z,1.83
2022-10-03T18:49:33.323Z,1.70
2022-10-03T18:52:10.701Z,1.73
2022-10-03T18:54:46.883Z,1.80
2022-10-03T18:57:19.647Z,1.80
2022-10-03T18:59:50.364Z,2.00
2022-10-03T19:02:23.469Z,2.10
2022-10-03T19:04:55.620Z,1.70
2022-10-03T19:07:24.068Z,2.10
2022-10-03T19:10:05.655Z,2.10
2022-10-03T19:12:34.503Z,1.90
2022-10-03T19:15:19.990Z,2.67
2022-10-03T19:17:54.986Z,2.23
2022-10-03T19:20:24.913Z,2.57
2022-10-03T19:23:12.094Z,1.97
2022-10-03T19:25:39.828Z,2.20
2022-10-03T19:28:14.000Z,2.10
2022-10-03T19:30:41.791Z,2.47
2022-10-03T19:33:22.761Z,1.80
2022-10-03T19:35:52.606Z,1.93
2022-10-03T19:38:23.055Z,2.07
2022-10-03T19:41:00.529Z,2.20
2022-10-03T19:43:29.856Z,2.03
2022-10-03T19:46:07.316Z,2.03
2022-10-03T19:48:35.013Z,2.03
2022-10-03T19:51:20.552Z,2.37
2022-10-03T19:53:50.088Z,2.10
2022-10-03T19:56:18.123Z,2.97
2022-10-03T19:58:45.239Z,2.37
2022-10-03T20:01:11.687Z,2.93
2022-10-03T20:03:39.536Z,2.23
2022-10-03T20:06:08.410Z,1.97
2022-10-03T20:08:39.893Z,2.80
2022-10-03T20:11:28.596Z,3.47
2022-10-03T20:13:55.724Z,2.77
2022-10-03T20:16:23.962Z,2.53
2022-10-03T20:18:51.832Z,2.03
2022-10-03T20:21:20.248Z,2.30
2022-10-03T20:23:47.189Z,2.00
2022-10-03T20:26:32.284Z,2.00
2022-10-03T20:29:04.022Z,1.87
2022-10-03T20:31:30.717Z,1.70
2022-10-03T20:33:58.936Z,1.80
2022-10-03T20:36:27.591Z,2.87
2022-10-03T20:39:05.071Z,2.30
2022-10-03T20:41:50.068Z,1.80
2022-10-03T20:44:38.246Z,2.23
2022-10-03T20:47:07.167Z,1.90
2022-10-03T20:49:35.172Z,1.70
2022-10-03T20:52:04.056Z,1.90
2022-10-03T20:54:34.304Z,1.60
2022-10-03T20:57:00.579Z,1.93
2022-10-03T20:59:33.740Z,1.80
2022-10-03T21:02:02.933Z,1.63
2022-10-03T21:04:37.735Z,1.93
2022-10-03T21:07:06.799Z,2.30
2022-10-03T21:09:41.990Z,1.93
2022-10-03T21:12:15.070Z,2.27
2022-10-03T21:14:42.618Z,2.00
2022-10-03T21:17:13.781Z,2.10
2022-10-03T21:19:46.084Z,2.00
2022-10-03T21:22:15.092Z,1.93
2022-10-03T21:24:50.704Z,2.00
2022-10-03T21:27:18.261Z,2.33
2022-10-03T21:29:53.556Z,1.97
2022-10-03T21:32:32.051Z,2.00
2022-10-03T21:35:16.503Z,1.97
2022-10-03T21:38:01.600Z,2.57
2022-10-03T21:40:33.037Z,2.03
2022-10-03T21:43:20.637Z,2.40
2022-10-03T21:45:50.004Z,2.03
2022-10-03T21:48:34.648Z,1.97
2022-10-03T21:51:06.363Z,2.40
2022-10-03T21:53:48.804Z,2.43
2022-10-03T21:56:32.533Z,2.20
2022-10-03T21:58:58.736Z,2.40
2022-10-03T22:01:33.012Z,2.20
2022-10-03T22:04:03.731Z,1.80
2022-10-03T22:06:35.319Z,3.10
2022-10-03T22:09:04.179Z,1.90
2022-10-03T22:11:40.285Z,2.20
2022-10-03T22:14:21.883Z,2.23
2022-10-03T22:16:50.929Z,1.90
2022-10-03T22:19:22.668Z,2.03
2022-10-03T22:21:58.526Z,2.27
2022-10-03T22:24:31.780Z,2.30
2022-10-03T22:27:03.170Z,2.00
2022-10-03T22:29:43.314Z,2.10
2022-10-03T22:32:13.104Z,1.97
2022-10-03T22:34:45.104Z,2.30
2022-10-03T22:37:12.627Z,2.27
2022-10-03T22:39:38.876Z,2.07
2022-10-03T22:42:06.672Z,2.60
2022-10-03T22:44:34.221Z,2.90
2022-10-03T22:47:03.638Z,2.13
2022-10-03T22:49:35.294Z,2.00
2022-10-03T22:52:03.244Z,2.10
2022-10-03T22:54:31.644Z,2.37
2022-10-03T22:57:00.347Z,2.40
2022-10-03T22:59:32.348Z,2.03
2022-10-03T23:02:00.121Z,2.20
2022-10-03T23:04:52.419Z,2.03
2022-10-03T23:07:28.828Z,2.33
2022-10-03T23:10:15.335Z,2.43
2022-10-03T23:12:47.795Z,2.30
2022-10-03T23:15:15.859Z,1.90
2022-10-03T23:18:00.773Z,2.20
2022-10-03T23:20:26.954Z,2.63
2022-10-03T23:22:55.032Z,2.03
2022-10-03T23:25:31.479Z,2.70
2022-10-03T23:28:03.619Z,2.00
2022-10-03T23:30:29.839Z,2.27
2022-10-03T23:32:56.253Z,2.00
2022-10-03T23:35:31.461Z,2.50
2022-10-03T23:37:58.585Z,2.60
2022-10-03T23:40:27.840Z,2.60
2022-10-03T23:43:04.201Z,2.40
2022-10-03T23:45:32.991Z,2.80
2022-10-03T23:48:07.250Z,2.13
2022-10-03T23:50:39.516Z,2.17
2022-10-03T23:53:06.683Z,2.10
2022-10-03T23:55:34.546Z,2.57
2022-10-03T23:58:00.916Z,2.70
